Time;durP1;ratioP1;P1;durP2;ratioP2;P2;SDS_P1;SDS_P2;PMS_P1;PMS_P2;Temp;Humidity;BMP_temperature;BMP_pressure;BME280_temperature;BME280_humidity;BME280_pressure;Samples;Min_cycle;Max_cycle;Signal;HPM_P1;HPM_P2
2022/01/02 00:02:12;;;;;;;6.03;2.80;;;12.20;99.90;;;;;;4966878;28;20120;-89
2022/01/02 00:04:46;;;;;;;5.18;3.15;;;12.20;99.90;;;;;;4983687;28;20475;-90
2022/01/02 00:07:16;;;;;;;4.07;2.80;;;12.20;99.90;;;;;;5002079;28;20032;-90
2022/01/02 00:09:46;;;;;;;6.97;2.63;;;12.10;99.90;;;;;;4967102;28;20072;-89
2022/01/02 00:12:16;;;;;;;5.95;2.83;;;12.10;99.90;;;;;;4957273;28;20038;-89
2022/01/02 00:14:46;;;;;;;4.10;2.63;;;12.10;99.90;;;;;;4983528;28;20023;-88
2022/01/02 00:17:22;;;;;;;5.22;2.85;;;12.10;99.90;;;;;;4985064;28;20022;-88
2022/01/02 00:19:53;;;;;;;7.57;3.25;;;12.10;99.90;;;;;;4990334;28;20100;-88
2022/01/02 00:22:36;;;;;;;5.13;3.55;;;12.10;99.90;;;;;;4984803;28;20202;-88
2022/01/02 00:25:12;;;;;;;5.25;3.03;;;12.10;99.90;;;;;;4981677;28;20162;-87
2022/01/02 00:27:40;;;;;;;5.22;2.78;;;12.10;99.90;;;;;;4982314;28;20050;-88
2022/01/02 00:30:12;;;;;;;9.57;3.92;;;12.10;99.90;;;;;;4982202;28;20042;-88
2022/01/02 00:32:43;;;;;;;6.90;3.60;;;12.10;99.90;;;;;;4972631;28;20494;-89
2022/01/02 00:35:09;;;;;;;5.25;3.20;;;12.20;99.90;;;;;;4967584;28;20030;-88
2022/01/02 00:37:36;;;;;;;5.22;3.22;;;12.20;99.90;;;;;;4984315;28;20117;-89
2022/01/02 00:40:05;;;;;;;7.55;3.83;;;12.10;99.90;;;;;;4950923;28;20095;-89
2022/01/02 00:42:41;;;;;;;6.57;4.30;;;12.10;99.90;;;;;;4984978;28;20121;-89
2022/01/02 00:45:19;;;;;;;7.35;3.75;;;12.10;99.90;;;;;;4985822;28;20042;-87
2022/01/02 00:48:22;;;;;;;5.93;4.10;;;12.10;99.90;;;;;;4985089;28;20055;-87
2022/01/02 00:50:50;;;;;;;7.68;3.63;;;12.20;99.90;;;;;;4928543;29;20032;-88
2022/01/02 00:53:19;;;;;;;5.45;3.38;;;12.10;99.90;;;;;;4947322;29;20051;-87
2022/01/02 00:56:07;;;;;;;7.28;3.72;;;12.10;99.90;;;;;;4934464;29;20613;-89
2022/01/02 00:59:02;;;;;;;9.38;4.20;;;12.00;99.90;;;;;;4950244;28;20181;-88
2022/01/02 01:01:35;;;;;;;10.23;3.88;;;12.00;99.90;;;;;;4983579;28;20105;-89
2022/01/02 01:04:02;;;;;;;7.93;4.45;;;11.90;99.90;;;;;;4969347;28;20493;-86
2022/01/02 01:06:32;;;;;;;10.35;4.07;;;11.80;99.90;;;;;;4985037;28;20030;-88
2022/01/02 01:09:05;;;;;;;6.97;3.80;;;11.70;99.90;;;;;;4975776;28;20039;-90
2022/01/02 01:11:31;;;;;;;7.57;3.95;;;11.70;99.90;;;;;;4960491;28;20122;-89
2022/01/02 01:13:59;;;;;;;7.45;4.40;;;11.60;99.90;;;;;;4993930;28;20065;-89
2022/01/02 01:16:26;;;;;;;6.63;3.80;;;11.60;99.90;;;;;;4985478;28;20141;-90
2022/01/02 01:18:57;;;;;;;8.02;4.20;;;11.50;99.90;;;;;;4985729;28;20014;-90
2022/01/02 01:21:24;;;;;;;9.43;5.10;;;11.40;99.90;;;;;;4985563;28;20026;-91
2022/01/02 01:23:51;;;;;;;8.95;4.60;;;11.40;99.90;;;;;;4967045;28;20126;-92
2022/01/02 01:26:20;;;;;;;8.73;4.18;;;11.30;99.90;;;;;;4985699;28;20375;-92
2022/01/02 01:28:48;;;;;;;7.45;4.43;;;11.30;99.90;;;;;;4988743;28;20041;-91
2022/01/02 01:31:15;;;;;;;9.23;4.72;;;11.20;99.90;;;;;;4988482;28;20373;-92
2022/01/02 01:33:43;;;;;;;10.57;5.68;;;11.20;99.90;;;;;;4976419;28;20484;-93
2022/01/02 01:36:09;;;;;;;7.60;4.60;;;11.20;99.90;;;;;;4971251;28;20088;-92
2022/01/02 01:38:37;;;;;;;8.38;4.30;;;11.20;99.90;;;;;;4992570;28;20026;-90
2022/01/02 01:41:09;;;;;;;9.30;4.38;;;11.10;99.90;;;;;;4986897;28;20502;-91
2022/01/02 01:43:53;;;;;;;8.65;4.20;;;11.10;99.90;;;;;;4987982;28;20038;-90
2022/01/02 01:46:21;;;;;;;9.95;4.30;;;11.10;99.90;;;;;;4985739;28;20129;-89
2022/01/02 01:48:51;;;;;;;9.45;4.30;;;11.10;99.90;;;;;;4987359;28;20478;-90
2022/01/02 01:51:17;;;;;;;9.13;4.30;;;11.10;99.90;;;;;;4985924;28;20068;-90
2022/01/02 01:53:43;;;;;;;7.72;4.68;;;11.10;99.90;;;;;;5003687;28;20049;-92
2022/01/02 01:56:12;;;;;;;8.15;4.15;;;11.10;99.90;;;;;;4987068;28;20026;-91
2022/01/02 01:58:42;;;;;;;7.07;3.75;;;11.10;99.90;;;;;;4986266;28;20034;-90
2022/01/02 02:01:08;;;;;;;9.52;4.82;;;11.10;99.90;;;;;;4986779;28;20026;-91
2022/01/02 02:03:36;;;;;;;7.93;4.22;;;11.10;99.90;;;;;;4976078;28;20026;-91
2022/01/02 02:06:23;;;;;;;7.07;4.07;;;11.10;99.90;;;;;;4994501;28;20120;-89
2022/01/02 02:08:52;;;;;;;9.40;4.88;;;11.10;99.90;;;;;;4996564;28;20349;-90
2022/01/02 02:11:22;;;;;;;7.72;4.35;;;11.10;99.90;;;;;;4997508;28;20092;-89
2022/01/02 02:13:49;;;;;;;9.15;5.38;;;11.10;99.90;;;;;;4997957;28;20026;-90
2022/01/02 02:16:15;;;;;;;11.45;5.50;;;11.10;99.90;;;;;;4981053;28;20042;-90
2022/01/02 02:18:41;;;;;;;9.32;4.93;;;11.10;99.90;;;;;;4997017;28;20036;-90
2022/01/02 02:21:08;;;;;;;11.00;5.43;;;11.10;99.90;;;;;;4996693;28;20374;-90
2022/01/02 02:23:35;;;;;;;13.20;5.55;;;11.10;99.90;;;;;;4996469;28;20029;-90
2022/01/02 02:26:01;;;;;;;10.68;5.50;;;11.10;99.90;;;;;;4997568;28;20052;-90
2022/01/02 02:28:28;;;;;;;18.77;5.50;;;11.20;99.90;;;;;;4996932;28;20038;-90
2022/01/02 02:30:55;;;;;;;9.95;4.82;;;11.20;99.90;;;;;;4996785;28;20077;-90
2022/01/02 02:33:21;;;;;;;10.32;5.30;;;11.20;99.90;;;;;;4980709;28;20037;-90
2022/01/02 02:35:50;;;;;;;11.50;4.93;;;11.20;99.90;;;;;;5013678;28;20014;-92
2022/01/02 02:38:18;;;;;;;7.75;4.88;;;11.20;99.90;;;;;;4998010;28;20044;-91
2022/01/02 02:40:45;;;;;;;13.65;5.60;;;11.30;99.90;;;;;;4981540;28;20030;-92
2022/01/02 02:43:30;;;;;;;10.57;4.97;;;11.30;99.90;;;;;;4995722;28;20038;-89
2022/01/02 02:49:03;;;;;;;11.38;4.47;;;11.30;99.90;;;;;;4999656;28;20194;-90
2022/01/02 02:54:22;;;;;;;9.57;4.50;;;11.30;99.90;;;;;;5014174;28;20040;-90
2022/01/02 02:59:30;;;;;;;9.43;4.53;;;11.40;99.90;;;;;;5014380;28;20022;-91
2022/01/02 03:01:57;;;;;;;11.40;4.25;;;11.50;99.90;;;;;;5012125;28;20288;-91
2022/01/02 03:04:24;;;;;;;7.90;4.30;;;11.50;99.90;;;;;;4982275;28;20038;-90
2022/01/02 03:06:53;;;;;;;11.32;4.95;;;11.50;99.90;;;;;;5001880;28;20086;-90
2022/01/02 03:09:48;;;;;;;10.30;4.20;;;11.50;99.90;;;;;;5018646;28;20026;-91
2022/01/02 03:12:28;;;;;;;10.27;4.65;;;11.60;99.90;;;;;;5012626;28;20042;-91
2022/01/02 03:14:55;;;;;;;10.40;4.07;;;11.60;99.90;;;;;;4996427;28;20468;-90
2022/01/02 03:17:21;;;;;;;12.05;4.25;;;11.60;99.90;;;;;;4981549;28;20044;-90
2022/01/02 03:19:50;;;;;;;14.40;4.57;;;11.60;99.90;;;;;;5003137;28;20025;-90
2022/01/02 03:22:17;;;;;;;10.80;4.28;;;11.60;99.90;;;;;;5018942;28;20378;-90
2022/01/02 03:24:45;;;;;;;12.48;4.78;;;11.60;99.90;;;;;;5013942;28;20034;-91
2022/01/02 03:27:11;;;;;;;12.60;4.53;;;11.70;99.90;;;;;;5000039;28;20033;-90
2022/01/02 03:29:36;;;;;;;12.10;4.70;;;11.70;99.90;;;;;;4999565;28;20038;-91
2022/01/02 03:32:02;;;;;;;11.50;4.13;;;11.70;99.90;;;;;;5017288;28;20034;-90
2022/01/02 03:34:28;;;;;;;10.35;4.32;;;11.70;99.90;;;;;;4984530;28;20050;-90
2022/01/02 03:36:57;;;;;;;11.93;5.00;;;11.70;99.90;;;;;;4984289;28;20026;-90
2022/01/02 03:39:23;;;;;;;13.00;4.78;;;11.70;99.90;;;;;;5000320;28;20038;-91
2022/01/02 03:41:50;;;;;;;10.43;4.90;;;11.70;99.90;;;;;;4999743;28;20096;-90
2022/01/02 03:44:17;;;;;;;10.48;4.25;;;11.80;99.90;;;;;;4999620;28;20060;-90
2022/01/02 03:46:43;;;;;;;11.40;4.00;;;11.90;99.90;;;;;;4998923;28;20113;-90
2022/01/02 03:49:11;;;;;;;12.82;3.90;;;12.00;99.90;;;;;;4999140;28;20053;-90
2022/01/02 03:51:37;;;;;;;12.38;3.88;;;12.00;99.90;;;;;;4984031;28;20041;-91
2022/01/02 03:54:06;;;;;;;11.25;3.58;;;12.00;99.90;;;;;;4983380;28;20118;-90
2022/01/02 03:56:33;;;;;;;10.13;3.80;;;12.10;99.90;;;;;;4983521;28;20033;-92
2022/01/02 03:59:01;;;;;;;11.82;3.70;;;12.10;99.90;;;;;;4983512;28;20053;-91
2022/01/02 04:01:29;;;;;;;13.73;3.88;;;12.10;99.90;;;;;;4999505;28;20109;-92
2022/01/02 04:03:54;;;;;;;12.60;3.97;;;12.10;99.90;;;;;;4982957;28;20072;-91
2022/01/02 04:06:21;;;;;;;11.18;3.47;;;12.10;99.90;;;;;;4999607;28;20053;-89
2022/01/02 04:08:47;;;;;;;11.75;3.85;;;12.10;99.90;;;;;;5001409;28;20474;-91
2022/01/02 04:11:12;;;;;;;13.73;4.22;;;12.10;99.90;;;;;;5009450;28;20081;-90
2022/01/02 04:13:38;;;;;;;13.07;4.20;;;12.10;99.90;;;;;;5001182;28;20026;-90
2022/01/02 04:16:04;;;;;;;11.90;4.60;;;12.10;99.90;;;;;;4998466;28;20061;-89
2022/01/02 04:18:30;;;;;;;10.38;3.22;;;12.20;99.90;;;;;;4982840;28;20505;-89
2022/01/02 04:20:55;;;;;;;11.20;3.60;;;12.10;99.90;;;;;;4998738;28;20030;-90
2022/01/02 04:23:24;;;;;;;7.43;3.15;;;12.20;99.90;;;;;;4982855;28;20367;-90
2022/01/02 04:25:50;;;;;;;12.32;3.88;;;12.20;99.90;;;;;;5016361;28;20069;-90
2022/01/02 04:28:16;;;;;;;10.25;3.95;;;12.10;99.90;;;;;;4984187;28;20034;-90
2022/01/02 04:30:42;;;;;;;8.93;3.30;;;12.10;99.90;;;;;;4999616;28;20046;-91
2022/01/02 04:33:07;;;;;;;9.05;3.72;;;12.10;99.90;;;;;;4983552;28;20363;-91
2022/01/02 04:35:33;;;;;;;16.02;3.55;;;12.10;99.90;;;;;;4999212;28;20425;-90
2022/01/02 04:38:00;;;;;;;10.95;3.78;;;12.10;99.90;;;;;;4999389;28;20030;-91
2022/01/02 04:40:25;;;;;;;9.95;3.65;;;12.00;99.90;;;;;;5000793;28;20382;-91
2022/01/02 04:42:51;;;;;;;11.60;4.20;;;12.00;99.90;;;;;;4999862;28;20040;-89
2022/01/02 04:45:20;;;;;;;12.13;4.28;;;11.90;99.90;;;;;;4982597;28;20037;-90
2022/01/02 04:47:46;;;;;;;13.13;4.30;;;11.90;99.90;;;;;;4998380;28;20030;-89
2022/01/02 04:50:11;;;;;;;17.25;4.95;;;11.80;99.90;;;;;;4998245;28;20026;-89
2022/01/02 04:52:37;;;;;;;8.52;4.72;;;11.80;99.90;;;;;;4997958;28;20048;-90
2022/01/02 04:55:03;;;;;;;16.35;5.20;;;11.70;99.90;;;;;;4982066;28;20034;-89
2022/01/02 04:57:29;;;;;;;8.48;4.13;;;11.70;99.90;;;;;;4997918;28;20029;-89
2022/01/02 04:59:56;;;;;;;9.60;4.03;;;11.70;99.90;;;;;;5015547;28;20034;-89
2022/01/02 05:02:22;;;;;;;14.18;4.85;;;11.60;99.90;;;;;;4998707;28;20120;-88
2022/01/02 05:04:47;;;;;;;13.93;5.82;;;11.60;99.90;;;;;;5015341;28;20465;-88
2022/01/02 05:07:14;;;;;;;16.83;4.88;;;11.60;99.90;;;;;;4982674;28;20037;-88
2022/01/02 05:09:41;;;;;;;9.75;4.20;;;11.50;99.90;;;;;;4998290;28;20038;-88
2022/01/02 05:12:07;;;;;;;10.63;4.97;;;11.50;99.90;;;;;;5015403;28;20034;-89
2022/01/02 05:14:36;;;;;;;14.77;5.30;;;11.50;99.90;;;;;;4997492;28;20389;-88
2022/01/02 05:17:02;;;;;;;10.35;4.35;;;11.50;99.90;;;;;;5018069;28;20071;-89
2022/01/02 05:19:27;;;;;;;10.60;4.60;;;11.50;99.90;;;;;;5000935;28;20034;-90
2022/01/02 05:21:55;;;;;;;9.68;4.43;;;11.50;99.90;;;;;;5000092;28;20026;-88
2022/01/02 05:24:22;;;;;;;12.15;4.55;;;11.50;99.90;;;;;;4997476;28;20032;-88
2022/01/02 05:26:49;;;;;;;10.75;5.07;;;11.50;99.90;;;;;;4997190;28;20026;-88
2022/01/02 05:29:15;;;;;;;9.18;4.30;;;11.40;99.90;;;;;;4981214;28;20050;-88
2022/01/02 05:31:41;;;;;;;11.40;4.72;;;11.40;99.90;;;;;;4997337;28;20435;-88
2022/01/02 05:34:07;;;;;;;10.95;4.55;;;11.50;99.90;;;;;;4996922;28;20068;-88
2022/01/02 05:36:33;;;;;;;12.82;4.57;;;11.40;99.90;;;;;;4997560;28;20466;-88
2022/01/02 05:38:58;;;;;;;11.93;5.78;;;11.40;99.90;;;;;;4997439;28;20033;-89
2022/01/02 05:41:26;;;;;;;12.23;4.60;;;11.40;99.90;;;;;;4997018;28;20052;-88
2022/01/02 05:43:52;;;;;;;8.32;4.57;;;11.40;99.90;;;;;;4997105;28;20034;-89
2022/01/02 05:46:18;;;;;;;8.13;4.90;;;11.40;99.90;;;;;;4980809;28;20038;-88
2022/01/02 05:48:44;;;;;;;9.13;4.82;;;11.40;99.90;;;;;;4996508;28;20359;-88
2022/01/02 05:51:10;;;;;;;10.95;4.90;;;11.30;99.90;;;;;;5014148;28;20112;-88
2022/01/02 05:53:36;;;;;;;11.20;5.00;;;11.30;99.90;;;;;;5014442;28;20108;-88
2022/01/02 05:56:02;;;;;;;10.68;4.80;;;11.30;99.90;;;;;;4999330;28;20064;-87
2022/01/02 05:58:29;;;;;;;13.00;5.53;;;11.30;99.90;;;;;;5020760;28;20052;-88
2022/01/02 06:00:55;;;;;;;9.98;5.38;;;11.30;99.90;;;;;;5002630;28;20025;-87
2022/01/02 06:03:20;;;;;;;14.93;5.68;;;11.30;99.90;;;;;;4999202;28;20030;-88
2022/01/02 06:05:46;;;;;;;9.85;4.60;;;11.30;99.90;;;;;;4981094;28;20505;-87
2022/01/02 06:08:12;;;;;;;12.15;5.15;;;11.20;99.90;;;;;;4997697;28;20037;-88
2022/01/02 06:10:38;;;;;;;15.05;5.22;;;11.20;99.90;;;;;;4997128;28;20033;-88
2022/01/02 06:13:05;;;;;;;11.45;5.05;;;11.20;99.90;;;;;;4996769;28;20030;-88
2022/01/02 06:15:31;;;;;;;11.23;5.97;;;11.20;99.90;;;;;;5013681;28;20092;-88
2022/01/02 06:17:59;;;;;;;10.05;5.28;;;11.20;99.90;;;;;;4981419;28;20351;-89
2022/01/02 06:20:29;;;;;;;10.90;4.95;;;11.20;99.90;;;;;;4996583;28;20488;-89
2022/01/02 06:22:54;;;;;;;11.50;5.38;;;11.20;99.90;;;;;;4996660;28;20080;-89
2022/01/02 06:25:23;;;;;;;9.93;4.72;;;11.20;99.90;;;;;;4980590;28;20029;-90
2022/01/02 06:27:51;;;;;;;14.00;5.50;;;11.20;99.90;;;;;;5014330;28;20026;-88
2022/01/02 06:30:18;;;;;;;12.10;5.03;;;11.20;99.90;;;;;;4992291;28;20054;-90
2022/01/02 06:32:44;;;;;;;11.07;4.65;;;11.20;99.90;;;;;;4993009;28;20505;-89
2022/01/02 06:35:14;;;;;;;12.73;5.07;;;11.20;99.90;;;;;;4993240;28;20023;-90
2022/01/02 06:37:39;;;;;;;12.48;4.90;;;11.20;99.90;;;;;;4992306;28;20037;-89
2022/01/02 06:40:06;;;;;;;10.82;4.32;;;11.20;99.90;;;;;;4994209;28;20109;-89
2022/01/02 06:42:33;;;;;;;11.23;4.45;;;11.20;99.90;;;;;;4992709;28;20064;-89
2022/01/02 06:45:01;;;;;;;9.07;4.38;;;11.20;99.90;;;;;;4994268;28;20107;-89
2022/01/02 06:47:27;;;;;;;8.77;4.70;;;11.20;99.90;;;;;;4992976;28;20092;-90
2022/01/02 06:49:55;;;;;;;10.80;4.40;;;11.20;99.90;;;;;;4994548;28;20053;-89
2022/01/02 06:52:22;;;;;;;11.75;4.15;;;11.20;99.90;;;;;;4993520;28;20034;-89
2022/01/02 06:54:52;;;;;;;12.70;6.00;;;11.20;99.90;;;;;;4994755;28;20049;-89
2022/01/02 06:57:20;;;;;;;9.95;4.47;;;11.20;99.90;;;;;;4994258;28;20049;-89
2022/01/02 06:59:46;;;;;;;9.35;4.35;;;11.20;99.90;;;;;;4994283;28;20039;-88
2022/01/02 07:02:12;;;;;;;10.02;4.70;;;11.10;99.90;;;;;;4996981;28;20034;-89
2022/01/02 07:04:38;;;;;;;10.40;4.60;;;11.20;99.90;;;;;;4996869;28;20030;-90
2022/01/02 07:07:04;;;;;;;9.93;4.60;;;11.20;99.90;;;;;;4997051;28;20026;-90
2022/01/02 07:09:31;;;;;;;8.73;4.55;;;11.10;99.90;;;;;;4998167;28;20027;-89
2022/01/02 07:11:58;;;;;;;12.40;5.00;;;11.10;99.90;;;;;;4997851;28;20034;-89
2022/01/02 07:14:26;;;;;;;8.40;4.22;;;11.20;99.90;;;;;;4996937;28;20034;-90
2022/01/02 07:16:56;;;;;;;9.60;3.92;;;11.10;99.90;;;;;;4996682;28;20030;-90
2022/01/02 07:19:21;;;;;;;9.32;4.18;;;11.20;99.90;;;;;;4995942;28;20479;-89
2022/01/02 07:21:52;;;;;;;9.50;3.67;;;11.20;99.90;;;;;;4996704;28;20028;-91
2022/01/02 07:24:20;;;;;;;10.52;4.07;;;11.20;99.90;;;;;;4996923;28;20030;-90
2022/01/02 07:26:46;;;;;;;10.05;5.07;;;11.10;99.90;;;;;;4998271;28;20105;-91
2022/01/02 07:29:15;;;;;;;8.68;3.90;;;11.10;99.90;;;;;;4997036;28;20113;-89
2022/01/02 07:31:41;;;;;;;8.77;3.88;;;11.20;99.90;;;;;;5018826;28;20072;-90
2022/01/02 07:34:08;;;;;;;8.75;3.58;;;11.10;99.90;;;;;;5000412;28;20090;-90
2022/01/02 07:36:39;;;;;;;9.15;3.92;;;11.20;99.90;;;;;;5000672;28;20037;-90
2022/01/02 07:39:06;;;;;;;8.43;4.13;;;11.10;99.90;;;;;;5000200;28;20029;-89
2022/01/02 07:41:33;;;;;;;8.52;3.95;;;11.10;99.90;;;;;;5016956;28;20042;-89
2022/01/02 07:44:00;;;;;;;9.32;3.97;;;11.10;99.90;;;;;;5017547;28;20025;-91
2022/01/02 07:46:26;;;;;;;9.35;4.07;;;11.10;99.90;;;;;;4999750;28;20120;-90
2022/01/02 07:48:53;;;;;;;8.95;4.03;;;11.10;99.90;;;;;;5017499;28;20045;-89
2022/01/02 07:51:19;;;;;;;8.63;3.75;;;11.10;99.90;;;;;;5000041;28;20037;-90
2022/01/02 07:53:45;;;;;;;12.77;4.40;;;11.00;99.90;;;;;;5017400;28;20097;-90
2022/01/02 07:56:12;;;;;;;11.35;4.85;;;11.00;99.90;;;;;;5010374;28;20111;-89
2022/01/02 07:58:38;;;;;;;10.55;4.50;;;11.00;99.90;;;;;;5002162;28;20041;-88
2022/01/02 08:01:05;;;;;;;6.82;3.90;;;11.00;99.90;;;;;;5001105;28;20390;-89
2022/01/02 08:03:31;;;;;;;7.65;3.95;;;10.90;99.90;;;;;;5000107;28;20030;-90
2022/01/02 08:05:59;;;;;;;10.95;5.18;;;11.00;99.90;;;;;;5017455;28;20022;-88
2022/01/02 08:08:27;;;;;;;9.48;4.57;;;11.00;99.90;;;;;;4999456;28;20529;-89
2022/01/02 08:10:53;;;;;;;7.57;4.20;;;10.90;99.90;;;;;;5000586;28;20371;-90
2022/01/02 08:13:19;;;;;;;9.57;4.50;;;10.90;99.90;;;;;;5000728;28;20042;-89
2022/01/02 08:15:50;;;;;;;8.93;4.05;;;10.90;99.90;;;;;;5016462;28;20018;-89
2022/01/02 08:18:16;;;;;;;6.53;3.72;;;11.00;99.90;;;;;;4999401;28;20117;-89
2022/01/02 08:20:46;;;;;;;5.95;3.67;;;10.90;99.90;;;;;;4999159;28;20123;-89
2022/01/02 08:23:13;;;;;;;7.20;4.07;;;10.90;99.90;;;;;;5017541;28;20025;-89
2022/01/02 08:25:39;;;;;;;8.65;3.90;;;10.90;99.90;;;;;;4999116;28;20037;-89
2022/01/02 08:28:05;;;;;;;7.05;4.25;;;10.90;99.90;;;;;;4998769;28;20084;-90
2022/01/02 08:30:31;;;;;;;6.93;4.10;;;10.90;99.90;;;;;;4994973;28;20121;-90
2022/01/02 08:32:59;;;;;;;8.98;4.63;;;10.90;99.90;;;;;;4996332;28;20027;-89
2022/01/02 08:35:25;;;;;;;6.65;4.10;;;10.90;99.90;;;;;;4995537;28;20033;-90
2022/01/02 08:37:53;;;;;;;7.97;3.65;;;10.90;99.90;;;;;;4995555;28;20030;-90
2022/01/02 08:40:21;;;;;;;8.95;4.32;;;10.90;99.90;;;;;;4995662;28;20125;-90
2022/01/02 08:42:49;;;;;;;8.10;3.72;;;10.90;99.90;;;;;;4995211;28;20039;-90
2022/01/02 08:45:15;;;;;;;8.43;3.72;;;10.90;99.90;;;;;;4995318;28;20350;-89
2022/01/02 08:47:41;;;;;;;8.07;4.13;;;10.90;99.90;;;;;;4995617;28;20030;-91
2022/01/02 08:50:08;;;;;;;7.60;4.07;;;10.90;99.90;;;;;;4994802;28;20483;-89
2022/01/02 08:52:38;;;;;;;6.38;4.13;;;10.90;99.90;;;;;;4995430;28;20022;-89
2022/01/02 08:55:08;;;;;;;7.63;4.10;;;10.90;99.90;;;;;;4994937;28;20091;-89
2022/01/02 08:57:37;;;;;;;6.47;3.85;;;10.90;99.90;;;;;;4994832;28;20030;-88
2022/01/02 09:00:05;;;;;;;7.97;3.53;;;10.90;99.90;;;;;;4994250;28;20034;-88
2022/01/02 09:02:33;;;;;;;8.10;3.25;;;10.90;99.90;;;;;;4994897;28;20030;-89
2022/01/02 09:04:59;;;;;;;7.22;3.75;;;10.90;99.90;;;;;;4994239;28;20046;-88
2022/01/02 09:07:27;;;;;;;7.53;3.53;;;10.90;99.90;;;;;;4994439;28;20066;-88
2022/01/02 09:09:54;;;;;;;6.40;3.03;;;10.90;99.90;;;;;;4993622;28;20019;-88
2022/01/02 09:12:20;;;;;;;6.75;3.55;;;10.90;99.90;;;;;;4992138;28;20038;-90
2022/01/02 09:14:46;;;;;;;6.97;3.75;;;10.90;99.90;;;;;;4992338;28;20390;-88
2022/01/02 09:17:14;;;;;;;7.60;3.70;;;11.00;99.90;;;;;;4992957;28;20022;-89
2022/01/02 09:19:42;;;;;;;6.40;3.75;;;11.00;99.90;;;;;;4995250;28;20052;-89
2022/01/02 09:22:15;;;;;;;7.57;4.07;;;11.00;99.90;;;;;;4975957;28;20048;-90
2022/01/02 09:24:41;;;;;;;11.63;4.97;;;11.00;99.90;;;;;;4993115;28;20069;-89
2022/01/02 09:27:08;;;;;;;8.45;4.45;;;11.00;99.90;;;;;;4992741;28;20034;-89
2022/01/02 09:29:34;;;;;;;9.88;4.50;;;11.10;99.90;;;;;;4993698;28;20133;-89
2022/01/02 09:32:00;;;;;;;8.55;4.20;;;11.20;99.90;;;;;;4997695;28;20052;-89
2022/01/02 09:34:25;;;;;;;8.23;4.25;;;11.20;99.90;;;;;;5005235;28;20093;-89
2022/01/02 09:36:54;;;;;;;8.23;4.47;;;11.40;99.90;;;;;;4996852;28;20022;-89
2022/01/02 09:39:20;;;;;;;6.57;4.28;;;11.70;99.90;;;;;;4984830;28;20046;-90
2022/01/02 09:41:46;;;;;;;7.93;4.20;;;12.30;99.90;;;;;;4978691;28;20045;-88
2022/01/02 09:44:15;;;;;;;6.63;4.20;;;12.40;99.90;;;;;;4980119;28;20402;-90
2022/01/02 09:46:44;;;;;;;7.78;4.05;;;12.20;99.90;;;;;;4994032;28;20026;-89
2022/01/02 09:49:10;;;;;;;10.43;4.85;;;12.00;99.90;;;;;;4976866;28;20048;-90
2022/01/02 09:51:36;;;;;;;7.43;3.83;;;11.90;99.90;;;;;;4980138;28;20034;-89
2022/01/02 09:54:04;;;;;;;9.05;3.97;;;11.80;99.90;;;;;;5002770;28;20026;-88
2022/01/02 09:56:30;;;;;;;8.38;4.75;;;11.80;99.90;;;;;;4982351;28;20028;-89
2022/01/02 09:58:56;;;;;;;7.55;4.50;;;11.80;99.90;;;;;;4976892;28;20050;-91
2022/01/02 10:01:24;;;;;;;8.20;4.65;;;11.70;99.90;;;;;;4976348;28;20037;-90
2022/01/02 10:03:57;;;;;;;6.68;3.90;;;11.80;99.90;;;;;;4976507;28;20549;-91
2022/01/02 10:06:53;;;;;;;8.93;4.57;;;11.80;99.90;;;;;;4977008;28;20088;-92
2022/01/02 10:09:43;;;;;;;7.38;4.43;;;11.80;99.90;;;;;;5010481;28;20549;-89
2022/01/02 10:12:35;;;;;;;7.35;4.85;;;12.00;99.90;;;;;;4980073;28;20046;-90
2022/01/02 10:15:14;;;;;;;9.43;5.32;;;12.30;99.90;;;;;;5012887;28;20644;-90
2022/01/02 10:18:10;;;;;;;7.82;4.80;;;13.10;99.90;;;;;;4995446;28;20022;-91
2022/01/02 10:20:37;;;;;;;8.88;4.90;;;14.20;99.90;;;;;;4982734;28;20070;-90
2022/01/02 10:23:17;;;;;;;7.80;4.30;;;14.70;99.90;;;;;;4995634;28;20056;-89
2022/01/02 10:25:45;;;;;;;8.32;5.30;;;14.30;99.90;;;;;;4996265;28;20022;-90
2022/01/02 10:28:32;;;;;;;7.18;4.60;;;13.80;99.90;;;;;;4995599;28;20088;-92
2022/01/02 10:31:15;;;;;;;10.05;6.18;;;13.30;99.90;;;;;;5013603;28;20066;-89
2022/01/02 10:34:00;;;;;;;8.68;5.22;;;13.10;99.90;;;;;;4994883;28;20033;-91
2022/01/02 10:36:40;;;;;;;9.65;5.20;;;13.00;99.90;;;;;;4983834;28;20026;-90
2022/01/02 10:39:20;;;;;;;10.00;5.25;;;12.80;99.90;;;;;;4979338;28;20034;-92
2022/01/02 10:41:50;;;;;;;12.45;5.15;;;12.70;99.90;;;;;;4979691;28;20030;-90
2022/01/02 10:44:33;;;;;;;10.40;5.45;;;12.80;99.90;;;;;;4979699;28;20086;-90
2022/01/02 10:47:15;;;;;;;8.65;5.03;;;13.30;99.90;;;;;;4979915;28;20754;-89
2022/01/02 10:49:59;;;;;;;9.63;5.55;;;13.40;99.90;;;;;;4997168;28;20228;-90
2022/01/02 10:52:35;;;;;;;8.73;4.97;;;13.80;99.90;;;;;;4997133;28;20454;-91
2022/01/02 10:55:22;;;;;;;8.48;5.45;;;14.20;99.90;;;;;;4979986;28;20031;-89
2022/01/02 10:57:53;;;;;;;10.90;4.90;;;14.80;99.90;;;;;;4987013;28;20026;-91
2022/01/02 11:00:23;;;;;;;7.63;4.90;;;14.80;99.90;;;;;;4990223;28;20044;-90
2022/01/02 11:02:50;;;;;;;8.45;4.13;;;14.30;99.90;;;;;;5000427;28;20038;-90
2022/01/02 11:05:19;;;;;;;10.38;4.93;;;13.70;99.90;;;;;;4992724;28;20034;-89
2022/01/02 11:07:55;;;;;;;9.32;5.30;;;13.40;99.90;;;;;;4983805;28;20026;-90
2022/01/02 11:10:23;;;;;;;9.27;5.20;;;13.10;99.90;;;;;;4980957;28;20023;-90
2022/01/02 11:12:52;;;;;;;10.27;5.68;;;12.90;99.90;;;;;;4980063;28;20026;-89
2022/01/02 11:15:21;;;;;;;9.13;5.32;;;12.80;99.90;;;;;;4993906;28;20478;-92
2022/01/02 11:17:47;;;;;;;11.90;4.93;;;12.70;99.90;;;;;;4998334;28;20022;-90
2022/01/02 11:20:17;;;;;;;12.10;5.03;;;12.70;99.90;;;;;;5001580;28;20033;-89
2022/01/02 11:22:57;;;;;;;11.48;5.40;;;12.60;99.90;;;;;;4999536;28;20030;-89
2022/01/02 11:25:44;;;;;;;12.27;4.85;;;12.60;99.90;;;;;;5016755;28;20022;-92
2022/01/02 11:28:38;;;;;;;10.38;4.70;;;12.60;99.90;;;;;;4998960;28;20037;-89
2022/01/02 11:31:10;;;;;;;7.90;4.32;;;12.60;99.90;;;;;;4973002;28;20104;-90
2022/01/02 11:33:40;;;;;;;10.27;4.53;;;12.60;99.90;;;;;;4983726;28;20029;-90
2022/01/02 11:36:33;;;;;;;10.48;4.45;;;12.60;99.90;;;;;;4998196;28;20028;-90
2022/01/02 11:39:09;;;;;;;8.03;4.20;;;12.60;99.90;;;;;;4998017;28;20513;-90
2022/01/02 11:41:53;;;;;;;9.50;3.83;;;12.60;99.90;;;;;;5015864;28;20037;-92
2022/01/02 11:44:39;;;;;;;11.40;4.80;;;12.60;99.90;;;;;;4981562;28;20188;-89
2022/01/02 11:47:10;;;;;;;9.68;4.00;;;12.60;99.90;;;;;;4996510;28;20050;-91
2022/01/02 11:49:43;;;;;;;18.67;4.40;;;12.60;99.90;;;;;;4985224;28;20022;-90
2022/01/02 11:52:26;;;;;;;11.38;3.88;;;12.60;99.90;;;;;;5000493;28;20105;-90
2022/01/02 11:54:56;;;;;;;13.02;4.85;;;12.70;99.90;;;;;;5000896;28;21394;-91
2022/01/02 11:57:28;;;;;;;9.02;4.22;;;12.70;99.90;;;;;;4999130;28;20022;-90
2022/01/02 11:59:58;;;;;;;17.58;4.95;;;12.70;99.90;;;;;;4980228;28;20035;-92
2022/01/02 12:02:27;;;;;;;9.05;4.00;;;12.80;99.90;;;;;;4980315;28;20117;-91
2022/01/02 12:05:20;;;;;;;9.00;3.88;;;12.90;99.90;;;;;;4979246;28;20121;-90
2022/01/02 12:07:55;;;;;;;;;;;12.90;99.90;;;;;;4978431;28;20038;-91
2022/01/02 12:10:41;;;;;;;12.25;3.60;;;12.90;99.90;;;;;;4978785;28;19916;-92
2022/01/02 12:13:36;;;;;;;9.40;3.80;;;12.90;99.90;;;;;;4994757;28;20054;-92
2022/01/02 12:16:06;;;;;;;13.90;4.70;;;12.90;99.90;;;;;;4978511;28;20028;-92
2022/01/02 12:18:41;;;;;;;11.07;4.38;;;12.90;99.90;;;;;;4979212;28;20085;-91
2022/01/02 12:21:07;;;;;;;11.75;4.50;;;12.90;99.90;;;;;;4980412;28;20038;-92
2022/01/02 12:23:34;;;;;;;16.73;4.22;;;13.00;99.90;;;;;;4980664;28;20414;-90
2022/01/02 12:26:21;;;;;;;10.80;4.20;;;13.00;99.90;;;;;;4978770;28;20117;-94
2022/01/02 12:29:01;;;;;;;10.88;3.72;;;13.00;99.90;;;;;;4995629;28;20463;-92
2022/01/02 12:31:38;;;;;;;10.02;4.25;;;13.00;99.90;;;;;;4975304;28;20555;-91
2022/01/02 12:34:14;;;;;;;8.65;3.50;;;13.00;99.90;;;;;;4976684;28;20035;-93
2022/01/02 12:36:43;;;;;;;11.60;3.90;;;13.00;99.90;;;;;;4976887;28;20058;-93
2022/01/02 12:39:16;;;;;;;8.40;3.83;;;13.00;99.90;;;;;;4974986;28;20046;-90
2022/01/02 12:41:47;;;;;;;14.60;4.60;;;13.00;99.90;;;;;;4975370;28;20054;-93
2022/01/02 12:44:29;;;;;;;9.35;3.75;;;13.00;99.90;;;;;;4976611;28;20406;-92
2022/01/02 12:47:08;;;;;;;10.32;3.67;;;13.00;99.90;;;;;;4974668;28;20410;-90
2022/01/02 12:49:37;;;;;;;10.07;4.13;;;13.00;99.90;;;;;;4974897;28;20031;-93
2022/01/02 12:52:10;;;;;;;10.98;3.92;;;13.00;99.90;;;;;;4959056;28;20035;-91
2022/01/02 12:54:57;;;;;;;10.43;3.55;;;13.00;99.90;;;;;;4991567;28;20030;-90
2022/01/02 12:57:43;;;;;;;11.85;4.22;;;13.00;99.90;;;;;;4994692;28;20566;-92
2022/01/02 13:00:12;;;;;;;8.43;4.30;;;13.10;99.90;;;;;;4991922;28;20023;-92
2022/01/02 13:02:41;;;;;;;8.80;4.40;;;13.10;99.90;;;;;;4979183;28;20030;-91
2022/01/02 13:05:18;;;;;;;9.50;3.85;;;13.20;99.90;;;;;;4996017;28;20033;-90
2022/01/02 13:07:46;;;;;;;9.60;3.65;;;13.30;99.90;;;;;;4996796;28;20073;-92